createdAt,value
2023-04-09T00:02:35.000Z,79.68
2023-04-09T00:07:36.000Z,80.15
2023-04-09T00:12:36.000Z,79.92
2023-04-09T00:17:36.000Z,78.28
2023-04-09T00:22:36.000Z,78.73
2023-04-09T00:27:36.000Z,76.27
2023-04-09T00:32:36.000Z,73.83
2023-04-09T00:37:35.000Z,72.83
2023-04-09T00:42:36.000Z,73.2
2023-04-09T00:47:36.000Z,71.42
2023-04-09T00:52:35.000Z,71.42
2023-04-09T00:57:36.000Z,71.46
2023-04-09T01:02:35.000Z,72.64
2023-04-09T01:07:35.000Z,71.45
2023-04-09T01:12:36.000Z,69.89
2023-04-09T01:17:36.000Z,73.08
2023-04-09T01:22:35.000Z,69.65
2023-04-09T01:27:35.000Z,72.08
2023-04-09T01:32:36.000Z,75.32
2023-04-09T01:37:36.000Z,79.1
2023-04-09T01:42:35.000Z,77.11
2023-04-09T01:47:35.000Z,76.05
2023-04-09T01:52:36.000Z,74.17
2023-04-09T01:57:36.000Z,71.32
2023-04-09T02:02:36.000Z,69.47
2023-04-09T02:07:36.000Z,69.47
2023-04-09T02:12:36.000Z,67.47
2023-04-09T02:17:36.000Z,68.52
2023-04-09T02:22:35.000Z,68.04
2023-04-09T02:27:35.000Z,63.98
2023-04-09T02:32:36.000Z,64.79
2023-04-09T02:37:36.000Z,65.63
2023-04-09T02:42:35.000Z,61.48
2023-04-09T02:47:36.000Z,59.68
2023-04-09T02:52:36.000Z,64.88
2023-04-09T02:57:35.000Z,62
2023-04-09T03:02:36.000Z,64.59
2023-04-09T03:07:36.000Z,68.71
2023-04-09T03:12:36.000Z,72.71
2023-04-09T03:17:35.000Z,72.71
2023-04-09T03:22:35.000Z,84.49
2023-04-09T03:27:35.000Z,73.54
2023-04-09T03:32:36.000Z,71.5
2023-04-09T03:37:35.000Z,69.8
2023-04-09T03:42:36.000Z,63.34
2023-04-09T03:47:35.000Z,66.21
2023-04-09T03:52:35.000Z,60.71
2023-04-09T03:57:36.000Z,49.4
2023-04-09T04:02:35.000Z,46.65
2023-04-09T04:07:35.000Z,44.4
2023-04-09T04:12:36.000Z,43.27
2023-04-09T04:17:35.000Z,41.7
2023-04-09T04:22:36.000Z,41.21
2023-04-09T04:27:36.000Z,41.21
2023-04-09T04:32:35.000Z,40.97
2023-04-09T04:37:36.000Z,41.12
2023-04-09T04:42:35.000Z,39.96
2023-04-09T04:47:36.000Z,40.49
2023-04-09T04:52:35.000Z,41.18
2023-04-09T04:57:35.000Z,38.85
2023-04-09T05:02:36.000Z,42.06
2023-04-09T05:07:35.000Z,40.82
2023-04-09T05:12:35.000Z,43.33
2023-04-09T05:17:36.000Z,41.81
2023-04-09T05:22:35.000Z,43.92
2023-04-09T05:27:36.000Z,45.02
2023-04-09T05:32:36.000Z,43.66
2023-04-09T05:37:36.000Z,43.25
2023-04-09T05:42:36.000Z,43.25
2023-04-09T05:47:35.000Z,41.51
2023-04-09T05:52:35.000Z,40.07
2023-04-09T05:57:35.000Z,39.91
2023-04-09T06:02:36.000Z,37.02
2023-04-09T06:07:36.000Z,38.5
2023-04-09T06:12:36.000Z,39.98
2023-04-09T06:17:36.000Z,40.4
2023-04-09T06:22:35.000Z,36.23
2023-04-09T06:27:35.000Z,37.9
2023-04-09T06:32:35.000Z,37.58
2023-04-09T06:37:35.000Z,36.15
2023-04-09T06:42:35.000Z,38.29
2023-04-09T06:47:35.000Z,37.03
2023-04-09T06:52:35.000Z,36.31
2023-04-09T06:57:36.000Z,36.31
2023-04-09T07:02:35.000Z,36.02
2023-04-09T07:07:35.000Z,34.7
2023-04-09T07:12:35.000Z,33.11
2023-04-09T07:17:36.000Z,32.59
2023-04-09T07:22:36.000Z,33.9
2023-04-09T07:27:35.000Z,32.96
2023-04-09T07:32:36.000Z,31.28
2023-04-09T07:37:36.000Z,32.15
2023-04-09T07:42:35.000Z,29.78
2023-04-09T07:47:35.000Z,28.88
2023-04-09T07:52:35.000Z,27.72
2023-04-09T07:57:36.000Z,28.28
2023-04-09T08:02:36.000Z,28.94
2023-04-09T08:07:36.000Z,28.94
2023-04-09T08:12:35.000Z,27.49
2023-04-09T08:17:35.000Z,26.02
2023-04-09T08:22:35.000Z,26.27
2023-04-09T08:27:36.000Z,23.66
2023-04-09T08:32:35.000Z,23.31
2023-04-09T08:37:36.000Z,22.27
2023-04-09T08:42:36.000Z,21.57
2023-04-09T08:47:36.000Z,20.4
2023-04-09T08:52:35.000Z,23.6
2023-04-09T08:57:36.000Z,20.3
2023-04-09T09:02:36.000Z,19.89
2023-04-09T09:07:35.000Z,20.05
2023-04-09T09:12:36.000Z,19.5
2023-04-09T09:17:36.000Z,19.88
2023-04-09T09:22:35.000Z,19.88
2023-04-09T09:27:35.000Z,19.92
2023-04-09T09:32:36.000Z,20.68
2023-04-09T09:37:35.000Z,20.73
2023-04-09T09:42:35.000Z,20.55
2023-04-09T09:47:36.000Z,20.43
2023-04-09T09:52:35.000Z,22.33
2023-04-09T09:57:36.000Z,21.33
2023-04-09T10:02:36.000Z,21.43
2023-04-09T10:07:35.000Z,20.94
2023-04-09T10:12:35.000Z,21.6
2023-04-09T10:17:36.000Z,20.34
2023-04-09T10:22:36.000Z,20.81
2023-04-09T10:27:36.000Z,20.81
2023-04-09T10:32:35.000Z,21.61
2023-04-09T10:37:36.000Z,21.13
2023-04-09T10:42:35.000Z,22.35
2023-04-09T10:47:36.000Z,35.97
2023-04-09T10:52:36.000Z,18.62
2023-04-09T10:57:35.000Z,20.46
2023-04-09T11:02:37.000Z,21.82
2023-04-09T11:07:36.000Z,22.96
2023-04-09T11:12:36.000Z,22.18
2023-04-09T11:17:36.000Z,21.83
2023-04-09T11:22:36.000Z,22.08
2023-04-09T11:27:36.000Z,22.03
2023-04-09T11:32:36.000Z,21.18
2023-04-09T11:37:36.000Z,22.61
2023-04-09T11:42:36.000Z,22.61
2023-04-09T11:47:36.000Z,25.03
2023-04-09T11:52:36.000Z,23.56
2023-04-09T11:57:35.000Z,24.3
2023-04-09T12:02:36.000Z,24.32
2023-04-09T12:07:35.000Z,25.35
2023-04-09T12:12:36.000Z,25.06
2023-04-09T12:17:36.000Z,26.29
2023-04-09T12:22:36.000Z,26.29
2023-04-09T12:27:36.000Z,27.09
2023-04-09T12:32:36.000Z,25.81
2023-04-09T12:37:36.000Z,26.67
2023-04-09T12:42:36.000Z,25.99
2023-04-09T12:47:35.000Z,27.07
2023-04-09T12:52:44.000Z,27.2
2023-04-09T12:57:35.000Z,26.22
2023-04-09T13:02:36.000Z,26.13
2023-04-09T13:07:36.000Z,26.38
2023-04-09T13:12:36.000Z,26.79
2023-04-09T13:17:35.000Z,26.36
2023-04-09T13:22:36.000Z,26.61
2023-04-09T13:27:35.000Z,24.93
2023-04-09T13:32:35.000Z,24.93
2023-04-09T13:37:36.000Z,25.18
2023-04-09T13:42:35.000Z,26.05
2023-04-09T13:47:36.000Z,25.6
2023-04-09T13:52:39.000Z,25.6
2023-04-09T13:57:36.000Z,26.49
2023-04-09T14:02:37.000Z,26.01
2023-04-09T14:07:35.000Z,26.81
2023-04-09T14:12:35.000Z,24.98
2023-04-09T14:17:36.000Z,27.45
2023-04-09T14:22:36.000Z,27.74
2023-04-09T14:27:36.000Z,28.44
2023-04-09T14:32:36.000Z,28.44
2023-04-09T14:37:35.000Z,29.62
2023-04-09T14:42:35.000Z,29.16
2023-04-09T14:47:35.000Z,28.11
2023-04-09T14:52:35.000Z,28.29
2023-04-09T14:57:36.000Z,27.84
2023-04-09T15:02:36.000Z,28.66
2023-04-09T15:07:36.000Z,28.82
2023-04-09T15:12:35.000Z,30.45
2023-04-09T15:17:35.000Z,33.6
2023-04-09T15:22:36.000Z,35.47
2023-04-09T15:27:35.000Z,42.47
2023-04-09T15:32:35.000Z,46.5
2023-04-09T15:37:36.000Z,47.03
2023-04-09T15:42:36.000Z,47.03
2023-04-09T15:47:35.000Z,44.16
2023-04-09T15:52:35.000Z,46.58
2023-04-09T15:57:36.000Z,49.88
2023-04-09T16:02:36.000Z,46.51
2023-04-09T16:07:36.000Z,45.45
2023-04-09T16:12:36.000Z,51.96
2023-04-09T16:17:35.000Z,51.86
2023-04-09T16:22:36.000Z,54.16
2023-04-09T16:28:42.000Z,55.93
2023-04-09T16:32:36.000Z,53.46
2023-04-09T16:37:36.000Z,91.81
2023-04-09T16:42:36.000Z,57.3
2023-04-09T16:47:36.000Z,50.76
2023-04-09T16:52:36.000Z,50.76
2023-04-09T16:57:36.000Z,51.01
2023-04-09T17:02:37.000Z,47.51
2023-04-09T17:07:36.000Z,53.22
2023-04-09T17:12:35.000Z,59.85
2023-04-09T17:17:36.000Z,59.82
2023-04-09T17:22:35.000Z,56.73
2023-04-09T17:27:36.000Z,57.4
2023-04-09T17:32:36.000Z,53.88
2023-04-09T17:37:36.000Z,52.98
2023-04-09T17:42:35.000Z,54.84
2023-04-09T17:47:36.000Z,59.89
2023-04-09T17:52:36.000Z,62.42
2023-04-09T17:57:36.000Z,61.6
2023-04-09T18:02:37.000Z,61.6
2023-04-09T18:07:35.000Z,61.22
2023-04-09T18:12:36.000Z,66.73
2023-04-09T18:17:36.000Z,61.36
2023-04-09T18:22:35.000Z,67.11
2023-04-09T18:27:36.000Z,71.36
2023-04-09T18:32:35.000Z,64.17
2023-04-09T18:37:36.000Z,64.45
2023-04-09T18:42:35.000Z,66.05
2023-04-09T18:47:35.000Z,62.05
2023-04-09T18:52:36.000Z,64.36
2023-04-09T18:57:36.000Z,67.79
2023-04-09T19:02:35.000Z,61.15
2023-04-09T19:07:36.000Z,59.19
2023-04-09T19:12:35.000Z,59.19
2023-04-09T19:17:35.000Z,56.33
2023-04-09T19:22:36.000Z,56.91
2023-04-09T19:27:36.000Z,57.92
2023-04-09T19:32:35.000Z,57.39
2023-04-09T19:37:36.000Z,58.37
2023-04-09T19:42:35.000Z,59.57
2023-04-09T19:47:36.000Z,57.14
2023-04-09T19:52:36.000Z,63.42
2023-04-09T19:57:36.000Z,63.35
2023-04-09T20:02:36.000Z,68.79
2023-04-09T20:07:36.000Z,70.5
2023-04-09T20:12:36.000Z,69.77
2023-04-09T20:17:36.000Z,73.1
2023-04-09T20:22:36.000Z,73.63
2023-04-09T20:27:36.000Z,73.63
2023-04-09T20:32:36.000Z,89.65
2023-04-09T20:37:36.000Z,92.2
2023-04-09T20:42:36.000Z,124.3
2023-04-09T20:47:37.000Z,123.35
2023-04-09T20:52:35.000Z,111.9
2023-04-09T20:57:36.000Z,105.02
2023-04-09T21:02:36.000Z,75.09
2023-04-09T21:07:35.000Z,74.99
2023-04-09T21:12:36.000Z,74.52
2023-04-09T21:17:36.000Z,70.11
2023-04-09T21:22:35.000Z,68.92
2023-04-09T21:27:36.000Z,71.38
2023-04-09T21:32:35.000Z,70.26
2023-04-09T21:37:36.000Z,70.26
2023-04-09T21:42:35.000Z,69.36
2023-04-09T21:47:36.000Z,68.33
2023-04-09T21:52:35.000Z,67.76
2023-04-09T21:57:36.000Z,70.51
2023-04-09T22:02:36.000Z,69.68
2023-04-09T22:07:35.000Z,71.06
2023-04-09T22:12:36.000Z,80.61
2023-04-09T22:17:35.000Z,89.51
2023-04-09T22:22:36.000Z,95.29
2023-04-09T22:27:35.000Z,91.93
2023-04-09T22:32:36.000Z,91.41
2023-04-09T22:37:36.000Z,84.98
2023-04-09T22:42:36.000Z,91.21
2023-04-09T22:47:35.000Z,98.48
2023-04-09T22:52:35.000Z,98.48
2023-04-09T22:57:35.000Z,103.76
2023-04-09T23:02:36.000Z,103.72
2023-04-09T23:07:36.000Z,106.39
2023-04-09T23:12:36.000Z,85.33
2023-04-09T23:17:36.000Z,105.04
2023-04-09T23:22:36.000Z,120.21
2023-04-09T23:27:35.000Z,108.65
2023-04-09T23:32:36.000Z,104.81
2023-04-09T23:37:35.000Z,101.37
2023-04-09T23:42:35.000Z,105.28
2023-04-09T23:47:36.000Z,101.66
2023-04-09T23:52:36.000Z,100.76
2023-04-09T23:57:36.000Z,112.43
